createdAt,value
2018-08-17T00:02:05.494Z,3.40
2018-08-17T00:04:33.179Z,3.10
2018-08-17T00:07:01.501Z,3.03
2018-08-17T00:09:28.838Z,3.30
2018-08-17T00:11:56.352Z,3.53
2018-08-17T00:14:23.692Z,3.57
2018-08-17T00:16:51.102Z,4.07
2018-08-17T00:19:18.413Z,4.23
2018-08-17T00:21:45.778Z,3.37
2018-08-17T00:24:13.108Z,3.10
2018-08-17T00:26:40.614Z,3.47
2018-08-17T00:29:07.937Z,4.03
2018-08-17T00:31:35.307Z,3.50
2018-08-17T00:34:03.479Z,2.70
2018-08-17T00:36:31.578Z,3.83
2018-08-17T00:38:58.977Z,3.07
2018-08-17T00:41:26.392Z,4.27
2018-08-17T00:43:53.715Z,3.60
2018-08-17T00:46:21.259Z,3.30
2018-08-17T00:48:48.599Z,4.17
2018-08-17T00:51:16.019Z,3.43
2018-08-17T00:53:43.343Z,3.80
2018-08-17T00:56:10.706Z,3.93
2018-08-17T00:58:38.046Z,3.80
2018-08-17T01:01:05.896Z,3.80
2018-08-17T01:03:34.315Z,3.50
2018-08-17T01:06:02.575Z,3.90
2018-08-17T01:08:30.138Z,4.00
2018-08-17T01:10:57.584Z,3.10
2018-08-17T01:13:24.894Z,3.40
2018-08-17T01:15:52.400Z,3.60
2018-08-17T01:18:19.751Z,3.80
2018-08-17T01:20:47.206Z,3.63
2018-08-17T01:23:14.542Z,4.23
2018-08-17T01:25:41.883Z,3.60
2018-08-17T01:28:09.973Z,3.83
2018-08-17T01:30:37.346Z,3.57
2018-08-17T01:33:05.394Z,3.90
2018-08-17T01:35:33.520Z,3.70
2018-08-17T01:38:00.926Z,3.50
2018-08-17T01:40:28.263Z,4.00
2018-08-17T01:42:55.602Z,3.50
2018-08-17T01:45:22.945Z,3.97
2018-08-17T01:47:50.298Z,3.90
2018-08-17T01:50:17.672Z,3.00
2018-08-17T01:52:45.007Z,2.90
2018-08-17T01:55:12.410Z,3.87
2018-08-17T01:57:39.775Z,3.83
2018-08-17T02:00:08.915Z,3.20
2018-08-17T02:02:36.643Z,3.57
2018-08-17T02:05:05.037Z,3.40
2018-08-17T02:07:32.757Z,3.90
2018-08-17T02:10:01.047Z,3.70
2018-08-17T02:12:28.398Z,4.03
2018-08-17T02:14:55.753Z,3.83
2018-08-17T02:17:23.135Z,4.00
2018-08-17T02:19:50.553Z,5.10
2018-08-17T02:22:17.945Z,4.83
2018-08-17T02:24:45.258Z,4.73
2018-08-17T02:27:12.601Z,4.70
2018-08-17T02:29:40.492Z,4.03
2018-08-17T02:32:09.254Z,4.60
2018-08-17T02:34:37.017Z,3.93
2018-08-17T02:37:04.619Z,3.70
2018-08-17T02:39:31.938Z,3.30
2018-08-17T02:41:59.294Z,4.50
2018-08-17T02:44:26.620Z,3.77
2018-08-17T02:46:53.980Z,3.53
2018-08-17T02:49:21.305Z,4.90
2018-08-17T02:51:48.871Z,3.50
2018-08-17T02:54:16.252Z,4.13
2018-08-17T02:56:43.573Z,3.50
2018-08-17T02:59:11.459Z,3.33
2018-08-17T03:01:39.877Z,3.53
2018-08-17T03:04:07.532Z,3.53
2018-08-17T03:06:34.925Z,3.40
2018-08-17T03:09:02.297Z,3.60
2018-08-17T03:11:29.706Z,3.33
2018-08-17T03:13:57.063Z,3.67
2018-08-17T03:16:24.651Z,3.70
2018-08-17T03:18:52.085Z,3.47
2018-08-17T03:21:19.410Z,3.40
2018-08-17T03:23:46.891Z,3.07
2018-08-17T03:26:14.208Z,3.73
2018-08-17T03:28:42.003Z,3.70
2018-08-17T03:31:10.430Z,3.63
2018-08-17T03:33:39.692Z,4.20
2018-08-17T03:36:07.395Z,4.30
2018-08-17T03:38:35.270Z,4.10
2018-08-17T03:41:02.962Z,4.10
2018-08-17T03:43:30.321Z,3.87
2018-08-17T03:45:57.899Z,4.47
2018-08-17T03:48:25.549Z,3.90
2018-08-17T03:50:53.214Z,3.70
2018-08-17T03:53:21.420Z,4.13
2018-08-17T03:55:48.801Z,3.40
2018-08-17T03:58:16.139Z,4.57
2018-08-17T04:00:43.744Z,3.70
2018-08-17T04:03:12.018Z,4.40
2018-08-17T04:05:40.021Z,3.73
2018-08-17T04:08:07.596Z,3.90
2018-08-17T04:10:35.020Z,4.50
2018-08-17T04:13:02.377Z,3.70
2018-08-17T04:15:29.770Z,3.77
2018-08-17T04:17:57.108Z,28.50
2018-08-17T04:20:24.580Z,5.63
2018-08-17T04:22:51.910Z,5.60
2018-08-17T04:25:19.287Z,5.27
2018-08-17T04:27:46.644Z,3.70
2018-08-17T04:30:14.259Z,4.03
2018-08-17T04:32:43.480Z,4.20
2018-08-17T04:35:11.853Z,3.40
2018-08-17T04:37:39.525Z,3.63
2018-08-17T04:40:06.946Z,4.00
2018-08-17T04:42:34.274Z,3.40
2018-08-17T04:45:01.627Z,3.73
2018-08-17T04:47:29.113Z,3.60
2018-08-17T04:49:56.470Z,3.83
2018-08-17T04:52:23.788Z,3.67
2018-08-17T04:54:51.135Z,3.40
2018-08-17T04:57:18.476Z,4.10
2018-08-17T04:59:45.918Z,3.90
2018-08-17T05:02:13.800Z,9.33
2018-08-17T05:04:42.242Z,10.23
2018-08-17T05:07:19.766Z,7.17
2018-08-17T05:09:47.149Z,5.10
2018-08-17T05:12:15.083Z,3.93
2018-08-17T05:14:43.924Z,4.30
2018-08-17T05:17:11.967Z,4.47
2018-08-17T05:19:39.315Z,3.50
2018-08-17T05:22:06.617Z,4.20
2018-08-17T05:24:33.966Z,3.93
2018-08-17T05:27:01.311Z,3.43
2018-08-17T05:29:28.700Z,6.20
2018-08-17T05:31:56.115Z,30.47
2018-08-17T05:34:23.506Z,5.70
2018-08-17T05:36:50.831Z,5.10
2018-08-17T05:39:18.178Z,4.20
2018-08-17T05:41:45.749Z,4.40
2018-08-17T05:44:13.921Z,18.53
2018-08-17T05:46:41.862Z,10.57
2018-08-17T05:49:09.261Z,9.03
2018-08-17T05:51:36.655Z,5.30
2018-08-17T05:54:04.058Z,5.73
2018-08-17T05:56:31.484Z,7.47
2018-08-17T05:58:58.778Z,5.90
2018-08-17T06:01:26.155Z,5.63
2018-08-17T06:03:53.798Z,5.57
2018-08-17T06:06:21.275Z,4.80
2018-08-17T06:08:48.899Z,5.20
2018-08-17T06:11:17.609Z,3.90
2018-08-17T06:13:45.483Z,5.53
2018-08-17T06:16:14.016Z,4.97
2018-08-17T06:18:42.089Z,10.70
2018-08-17T06:21:09.525Z,9.10
2018-08-17T06:23:36.860Z,11.10
2018-08-17T06:26:04.270Z,6.70
2018-08-17T06:28:31.611Z,5.60
2018-08-17T06:30:58.975Z,5.87
2018-08-17T06:33:26.362Z,6.77
2018-08-17T06:35:53.723Z,6.67
2018-08-17T06:38:21.060Z,6.37
2018-08-17T06:40:48.434Z,6.33
2018-08-17T06:43:16.055Z,6.60
2018-08-17T06:45:44.488Z,5.07
2018-08-17T06:48:11.989Z,6.70
2018-08-17T06:50:39.515Z,5.60
2018-08-17T06:53:06.820Z,6.17
2018-08-17T06:55:34.201Z,5.30
2018-08-17T06:58:17.594Z,4.70
2018-08-17T07:00:45.884Z,4.80
2018-08-17T07:03:14.130Z,5.20
2018-08-17T07:05:41.565Z,5.30
2018-08-17T07:08:08.898Z,4.70
2018-08-17T07:10:36.235Z,3.93
2018-08-17T07:13:03.599Z,4.30
2018-08-17T07:15:30.935Z,4.93
2018-08-17T07:17:58.343Z,4.20
2018-08-17T07:20:25.670Z,4.50
2018-08-17T07:22:53.042Z,4.50
2018-08-17T07:25:20.584Z,4.23
2018-08-17T07:27:48.039Z,3.00
2018-08-17T07:30:16.190Z,3.80
2018-08-17T07:32:44.151Z,4.47
2018-08-17T07:35:11.672Z,3.77
2018-08-17T07:37:39.036Z,4.97
2018-08-17T07:40:06.479Z,3.67
2018-08-17T07:42:33.851Z,4.50
2018-08-17T07:45:01.447Z,4.30
2018-08-17T07:47:28.835Z,3.47
2018-08-17T07:49:56.178Z,4.57
2018-08-17T07:52:23.586Z,3.97
2018-08-17T07:54:50.918Z,4.13
2018-08-17T07:57:18.504Z,4.73
2018-08-17T07:59:46.826Z,3.80
2018-08-17T08:02:14.768Z,4.67
2018-08-17T08:04:42.153Z,3.80
2018-08-17T08:07:09.546Z,3.67
2018-08-17T08:09:36.891Z,3.40
2018-08-17T08:12:04.257Z,4.70
2018-08-17T08:14:31.582Z,4.80
2018-08-17T08:16:58.986Z,4.30
2018-08-17T08:19:26.307Z,3.90
2018-08-17T08:21:53.657Z,4.83
2018-08-17T08:24:21.001Z,3.70
2018-08-17T08:26:48.781Z,4.57
2018-08-17T08:29:17.031Z,4.03
2018-08-17T08:31:44.871Z,4.70
2018-08-17T08:34:12.536Z,4.30
2018-08-17T08:36:39.895Z,4.57
2018-08-17T08:39:08.071Z,4.50
2018-08-17T08:41:35.469Z,4.13
2018-08-17T08:44:02.887Z,4.47
2018-08-17T08:46:30.216Z,5.03
2018-08-17T08:48:57.615Z,5.00
2018-08-17T08:51:25.049Z,4.70
2018-08-17T08:53:52.411Z,3.87
2018-08-17T08:56:19.776Z,5.43
2018-08-17T08:58:48.161Z,4.90
2018-08-17T09:01:16.207Z,4.83
2018-08-17T09:03:43.691Z,4.40
2018-08-17T09:06:11.562Z,4.10
2018-08-17T09:08:39.841Z,4.50
2018-08-17T09:11:07.882Z,4.80
2018-08-17T09:13:35.366Z,5.63
2018-08-17T09:16:02.727Z,5.60
2018-08-17T09:18:30.358Z,4.00
2018-08-17T09:20:57.712Z,5.47
2018-08-17T09:23:25.076Z,3.90
2018-08-17T09:25:52.391Z,5.23
2018-08-17T09:28:19.767Z,4.87
2018-08-17T09:30:47.442Z,5.37
2018-08-17T09:33:14.788Z,5.83
2018-08-17T09:35:42.116Z,4.90
2018-08-17T09:38:10.452Z,5.37
2018-08-17T09:40:38.500Z,5.57
2018-08-17T09:43:06.092Z,5.20
2018-08-17T09:45:33.427Z,5.27
2018-08-17T09:48:00.786Z,4.47
2018-08-17T09:50:28.139Z,5.33
2018-08-17T09:52:55.497Z,5.90
2018-08-17T09:55:22.829Z,5.40
2018-08-17T09:57:50.171Z,4.97
2018-08-17T10:00:17.538Z,5.63
2018-08-17T10:02:50.069Z,6.63
2018-08-17T10:05:22.790Z,4.70
2018-08-17T10:07:55.435Z,6.80
2018-08-17T10:10:24.246Z,6.13
2018-08-17T10:12:52.155Z,5.80
2018-08-17T10:15:19.520Z,6.60
2018-08-17T10:17:47.144Z,5.17
2018-08-17T10:20:16.382Z,6.33
2018-08-17T10:22:43.989Z,5.97
2018-08-17T10:25:16.189Z,6.97
2018-08-17T10:27:44.188Z,7.63
2018-08-17T10:30:11.946Z,5.70
2018-08-17T10:32:45.183Z,6.60
2018-08-17T10:35:18.166Z,6.30
2018-08-17T10:37:45.559Z,6.20
2018-08-17T10:40:13.009Z,6.23
2018-08-17T10:42:41.250Z,6.97
2018-08-17T10:45:09.259Z,5.73
2018-08-17T10:47:36.867Z,5.57
2018-08-17T10:50:08.989Z,5.70
2018-08-17T10:52:36.493Z,5.37
2018-08-17T10:55:03.974Z,6.50
2018-08-17T10:57:31.351Z,5.30
2018-08-17T10:59:58.697Z,5.43
2018-08-17T11:02:26.033Z,5.43
2018-08-17T11:04:53.399Z,3.87
2018-08-17T11:07:25.204Z,7.17
2018-08-17T11:09:52.751Z,6.30
2018-08-17T11:12:20.106Z,5.90
2018-08-17T11:14:47.582Z,6.13
2018-08-17T11:17:14.959Z,5.77
2018-08-17T11:19:42.571Z,5.20
2018-08-17T11:22:11.054Z,4.90
2018-08-17T11:24:39.750Z,4.40
2018-08-17T11:27:08.237Z,5.10
2018-08-17T11:29:36.627Z,4.50
2018-08-17T11:32:04.088Z,4.40
2018-08-17T11:34:32.124Z,3.60
2018-08-17T11:37:00.317Z,4.60
2018-08-17T11:39:27.672Z,4.67
2018-08-17T11:41:55.484Z,3.37
2018-08-17T11:44:22.808Z,4.43
2018-08-17T11:46:50.195Z,2.90
2018-08-17T11:49:17.599Z,4.47
2018-08-17T11:51:45.082Z,4.80
2018-08-17T11:54:13.112Z,5.20
2018-08-17T11:56:41.937Z,4.00
2018-08-17T11:59:09.887Z,4.60
2018-08-17T12:01:37.317Z,4.80
2018-08-17T12:04:04.637Z,5.20
2018-08-17T12:06:31.979Z,5.30
2018-08-17T12:08:59.320Z,5.47
2018-08-17T12:11:26.686Z,3.27
2018-08-17T12:13:54.161Z,3.57
2018-08-17T12:16:21.614Z,4.90
2018-08-17T12:18:48.961Z,4.37
2018-08-17T12:21:16.367Z,5.80
2018-08-17T12:23:44.120Z,5.50
2018-08-17T12:26:12.774Z,5.43
2018-08-17T12:28:40.601Z,4.60
2018-08-17T12:31:08.023Z,4.60
2018-08-17T12:33:35.351Z,3.20
2018-08-17T12:36:02.772Z,5.40
2018-08-17T12:38:30.163Z,5.03
2018-08-17T12:40:58.327Z,4.87
2018-08-17T12:43:26.571Z,4.90
2018-08-17T12:45:53.945Z,4.10
2018-08-17T12:48:21.278Z,5.67
2018-08-17T12:50:48.677Z,5.53
2018-08-17T12:53:17.531Z,6.60
2018-08-17T12:55:45.677Z,3.17
2018-08-17T12:58:15.913Z,3.40
2018-08-17T13:00:44.820Z,4.90
2018-08-17T13:03:13.406Z,4.47
2018-08-17T13:05:41.719Z,4.87
2018-08-17T13:08:09.213Z,5.30
2018-08-17T13:10:36.626Z,3.60
2018-08-17T13:13:06.324Z,5.43
2018-08-17T13:15:33.897Z,4.73
2018-08-17T13:18:09.287Z,4.50
2018-08-17T13:20:36.714Z,3.17
2018-08-17T13:23:04.093Z,3.40
2018-08-17T13:25:31.520Z,3.00
2018-08-17T13:28:00.368Z,3.13
2018-08-17T13:30:27.969Z,3.57
2018-08-17T13:32:56.357Z,3.87
2018-08-17T13:35:24.480Z,4.80
2018-08-17T13:37:51.884Z,4.80
2018-08-17T13:40:19.250Z,4.60
2018-08-17T13:42:46.663Z,5.30
2018-08-17T13:45:14.764Z,4.87
2018-08-17T13:47:43.034Z,4.70
2018-08-17T13:50:10.477Z,4.80
2018-08-17T13:52:37.895Z,4.33
2018-08-17T13:55:05.298Z,4.20
2018-08-17T13:57:32.924Z,3.90
2018-08-17T14:00:00.323Z,4.63
2018-08-17T14:02:27.735Z,4.10
2018-08-17T14:04:55.158Z,4.30
2018-08-17T14:07:22.574Z,5.40
2018-08-17T14:09:50.036Z,4.40
2018-08-17T14:12:17.397Z,4.80
2018-08-17T14:14:45.251Z,5.57
2018-08-17T14:17:13.530Z,4.30
2018-08-17T14:19:40.971Z,4.60
2018-08-17T14:22:08.476Z,4.17
2018-08-17T14:24:35.799Z,4.63
2018-08-17T14:27:03.164Z,4.10
2018-08-17T14:29:30.489Z,4.70
2018-08-17T14:31:58.022Z,3.60
2018-08-17T14:34:25.462Z,4.50
2018-08-17T14:36:52.803Z,4.50
2018-08-17T14:39:20.155Z,4.10
2018-08-17T14:42:00.240Z,3.70
2018-08-17T14:44:28.070Z,4.30
2018-08-17T14:46:55.684Z,3.57
2018-08-17T14:49:23.440Z,4.40
2018-08-17T14:51:50.931Z,3.87
2018-08-17T14:54:18.342Z,4.00
2018-08-17T14:56:46.304Z,5.60
2018-08-17T14:59:14.837Z,5.37
2018-08-17T15:01:42.517Z,4.47
2018-08-17T15:04:09.931Z,4.27
2018-08-17T15:06:37.415Z,4.73
2018-08-17T15:09:07.159Z,5.07
2018-08-17T15:11:34.482Z,4.63
2018-08-17T15:14:01.846Z,4.83
2018-08-17T15:16:29.173Z,4.80
2018-08-17T15:18:56.526Z,4.67
2018-08-17T15:21:23.864Z,4.10
2018-08-17T15:23:51.198Z,4.33
2018-08-17T15:26:18.525Z,5.20
2018-08-17T15:28:46.535Z,5.10
2018-08-17T15:31:14.566Z,4.10
2018-08-17T15:33:41.938Z,3.53
2018-08-17T15:36:09.258Z,4.47
2018-08-17T15:38:36.626Z,4.30
2018-08-17T15:41:03.942Z,4.70
2018-08-17T15:43:31.313Z,4.63
2018-08-17T15:45:58.679Z,4.27
2018-08-17T15:48:26.059Z,4.70
2018-08-17T15:50:53.418Z,4.50
2018-08-17T15:53:20.764Z,4.23
2018-08-17T15:55:48.175Z,4.30
2018-08-17T15:58:16.625Z,4.80
2018-08-17T16:00:44.464Z,4.63
2018-08-17T16:03:11.865Z,5.20
2018-08-17T16:05:39.228Z,4.97
2018-08-17T16:08:06.567Z,5.20
2018-08-17T16:10:33.922Z,5.53
2018-08-17T16:13:01.274Z,5.13
2018-08-17T16:15:28.629Z,6.43
2018-08-17T16:17:55.987Z,6.07
2018-08-17T16:20:23.394Z,5.70
2018-08-17T16:22:50.722Z,4.90
2018-08-17T16:25:18.526Z,5.17
2018-08-17T16:27:46.807Z,5.70
2018-08-17T16:30:15.799Z,7.53
2018-08-17T16:32:43.361Z,8.20
2018-08-17T16:35:11.017Z,7.50
2018-08-17T16:37:42.918Z,7.00
2018-08-17T16:40:10.274Z,7.10
2018-08-17T16:42:37.612Z,7.20
2018-08-17T16:45:05.815Z,6.90
2018-08-17T16:47:33.129Z,7.00
2018-08-17T16:50:00.484Z,6.87
2018-08-17T16:52:27.834Z,8.53
2018-08-17T16:54:55.204Z,7.23
2018-08-17T16:57:22.584Z,6.80
2018-08-17T16:59:50.006Z,6.60
2018-08-17T17:02:18.100Z,7.70
2018-08-17T17:04:46.041Z,7.13
2018-08-17T17:07:13.451Z,7.03
2018-08-17T17:09:40.819Z,9.17
2018-08-17T17:12:10.185Z,8.20
2018-08-17T17:14:37.540Z,7.67
2018-08-17T17:17:05.446Z,6.93
2018-08-17T17:19:32.801Z,9.17
2018-08-17T17:22:00.123Z,8.00
2018-08-17T17:24:27.476Z,7.93
2018-08-17T17:26:54.866Z,7.57
2018-08-17T17:29:30.849Z,7.70
2018-08-17T17:31:58.220Z,7.07
2018-08-17T17:34:25.589Z,6.40
2018-08-17T17:36:52.950Z,7.57
2018-08-17T17:39:20.656Z,6.70
2018-08-17T17:41:49.072Z,7.23
2018-08-17T17:44:16.985Z,7.53
2018-08-17T17:46:44.425Z,6.93
2018-08-17T17:49:11.787Z,10.83
2018-08-17T17:51:39.344Z,13.20
2018-08-17T17:54:07.188Z,7.70
2018-08-17T17:56:34.771Z,6.70
2018-08-17T17:59:07.440Z,14.27
2018-08-17T18:01:34.847Z,999.90
2018-08-17T18:04:02.241Z,999.90
2018-08-17T18:06:29.631Z,999.90
2018-08-17T18:08:58.789Z,929.60
2018-08-17T18:11:26.264Z,999.90
2018-08-17T18:13:53.635Z,525.77
2018-08-17T18:16:21.419Z,67.80
2018-08-17T18:18:49.834Z,8.50
2018-08-17T18:21:17.505Z,8.33
2018-08-17T18:23:46.040Z,7.87
2018-08-17T18:26:17.135Z,8.93
2018-08-17T18:28:44.565Z,8.00
2018-08-17T18:31:11.934Z,8.63
2018-08-17T18:33:39.290Z,8.97
2018-08-17T18:36:06.721Z,8.83
2018-08-17T18:38:34.052Z,8.67
2018-08-17T18:41:01.469Z,8.80
2018-08-17T18:43:28.804Z,7.70
2018-08-17T18:45:56.159Z,9.00
2018-08-17T18:48:23.683Z,8.13
2018-08-17T18:50:51.859Z,8.10
2018-08-17T18:53:20.188Z,8.37
2018-08-17T18:55:49.752Z,8.10
2018-08-17T18:58:17.681Z,7.73
2018-08-17T19:00:52.465Z,7.60
2018-08-17T19:03:20.892Z,7.60
2018-08-17T19:05:48.555Z,8.77
2018-08-17T19:08:15.954Z,7.70
2018-08-17T19:10:44.350Z,8.27
2018-08-17T19:13:11.992Z,8.43
2018-08-17T19:15:45.008Z,7.62
2018-08-17T19:18:12.678Z,8.07
2018-08-17T19:20:40.373Z,8.27
2018-08-17T19:23:08.969Z,7.00
2018-08-17T19:25:39.961Z,7.60
2018-08-17T19:28:08.077Z,7.40
2018-08-17T19:30:35.562Z,7.47
2018-08-17T19:33:10.944Z,7.30
2018-08-17T19:35:43.842Z,9.13
2018-08-17T19:38:11.938Z,8.00
2018-08-17T19:40:40.125Z,7.83
2018-08-17T19:43:08.486Z,9.13
2018-08-17T19:45:35.863Z,7.70
2018-08-17T19:48:03.253Z,8.23
2018-08-17T19:50:30.754Z,8.37
2018-08-17T19:52:58.186Z,8.33
2018-08-17T19:55:25.487Z,8.13
2018-08-17T19:57:52.857Z,7.03
2018-08-17T20:00:20.304Z,8.20
2018-08-17T20:02:47.663Z,9.83
2018-08-17T20:05:14.999Z,9.20
2018-08-17T20:07:42.365Z,7.73
2018-08-17T20:10:11.317Z,10.10
2018-08-17T20:12:39.622Z,9.73
2018-08-17T20:15:07.891Z,10.07
2018-08-17T20:17:35.446Z,8.80
2018-08-17T20:20:02.864Z,9.40
2018-08-17T20:22:30.213Z,8.63
2018-08-17T20:24:57.608Z,9.23
2018-08-17T20:27:25.174Z,10.13
2018-08-17T20:29:52.529Z,9.90
2018-08-17T20:32:19.917Z,9.07
2018-08-17T20:34:48.622Z,9.90
2018-08-17T20:37:16.877Z,9.83
2018-08-17T20:39:45.489Z,9.57
2018-08-17T20:42:12.945Z,11.07
2018-08-17T20:44:41.258Z,10.47
2018-08-17T20:47:10.091Z,10.33
2018-08-17T20:49:37.928Z,11.10
2018-08-17T20:52:05.457Z,11.90
2018-08-17T20:54:33.167Z,10.23
2018-08-17T20:57:01.185Z,10.30
2018-08-17T20:59:28.739Z,9.73
2018-08-17T21:01:56.266Z,11.20
2018-08-17T21:04:23.733Z,10.43
2018-08-17T21:06:51.114Z,11.40
2018-08-17T21:09:18.747Z,10.37
2018-08-17T21:11:46.204Z,9.57
2018-08-17T21:14:13.634Z,11.57
2018-08-17T21:16:41.994Z,11.03
2018-08-17T21:19:10.079Z,9.70
2018-08-17T21:21:37.563Z,10.00
2018-08-17T21:24:04.876Z,10.60
2018-08-17T21:26:32.254Z,9.30
2018-08-17T21:28:59.622Z,10.00
2018-08-17T21:31:26.966Z,9.47
2018-08-17T21:33:54.322Z,9.00
2018-08-17T21:36:21.682Z,9.13
2018-08-17T21:38:56.859Z,10.50
2018-08-17T21:41:24.268Z,11.60
2018-08-17T21:43:51.578Z,10.00
2018-08-17T21:46:18.975Z,9.30
2018-08-17T21:48:46.317Z,9.73
2018-08-17T21:51:13.865Z,10.57
2018-08-17T21:53:42.091Z,9.17
2018-08-17T21:56:10.675Z,9.47
2018-08-17T21:58:38.185Z,9.70
2018-08-17T22:01:05.819Z,9.20
2018-08-17T22:03:35.587Z,9.37
2018-08-17T22:06:03.037Z,10.27
2018-08-17T22:08:30.429Z,9.40
2018-08-17T22:10:57.781Z,8.43
2018-08-17T22:13:29.260Z,10.57
2018-08-17T22:15:56.613Z,9.40
2018-08-17T22:18:24.040Z,8.83
2018-08-17T22:20:51.511Z,10.30
2018-08-17T22:23:18.850Z,9.73
2018-08-17T22:25:46.201Z,10.27
2018-08-17T22:28:14.019Z,10.23
2018-08-17T22:30:42.421Z,10.07
2018-08-17T22:33:10.203Z,9.87
2018-08-17T22:35:37.620Z,10.63
2018-08-17T22:38:05.206Z,9.87
2018-08-17T22:40:32.548Z,8.87
2018-08-17T22:42:59.950Z,9.60
2018-08-17T22:45:27.276Z,9.70
2018-08-17T22:47:54.697Z,8.60
2018-08-17T22:50:22.131Z,10.77
2018-08-17T22:52:49.478Z,8.50
2018-08-17T22:55:16.831Z,10.07
2018-08-17T22:57:44.640Z,11.17
2018-08-17T23:00:16.919Z,10.63
2018-08-17T23:02:45.491Z,9.20
2018-08-17T23:05:14.885Z,9.90
2018-08-17T23:07:43.270Z,10.30
2018-08-17T23:10:13.968Z,10.97
2018-08-17T23:12:42.052Z,11.20
2018-08-17T23:15:10.355Z,10.67
2018-08-17T23:17:38.034Z,11.80
2018-08-17T23:20:05.572Z,10.27
2018-08-17T23:22:32.983Z,10.87
2018-08-17T23:25:00.399Z,10.90
2018-08-17T23:27:27.760Z,10.10
2018-08-17T23:29:55.124Z,10.57
2018-08-17T23:32:22.500Z,10.47
2018-08-17T23:34:49.878Z,13.60
2018-08-17T23:37:17.221Z,12.07
2018-08-17T23:39:45.270Z,10.97
2018-08-17T23:42:13.545Z,11.07
2018-08-17T23:44:41.112Z,11.33
2018-08-17T23:47:08.507Z,10.60
2018-08-17T23:49:35.951Z,12.57
2018-08-17T23:52:03.384Z,14.00
2018-08-17T23:54:30.757Z,12.50
2018-08-17T23:56:58.084Z,13.67
2018-08-17T23:59:26.427Z,13.17
